Gardner, Massachusetts
Current Conditions -  °F | °C
As of 3:52 PM on Thursday 20 Nov 2014 (Local Time) from KFIT Reporting Station
Clear Clear  
Wind Chill: 34°   Ceiling: Unl
Heat Index: 40°   Visibility: 10mi
Dew Point: 14°   Wind: 8mph
Humidity: 35%   Direction: 280°W
Pressure: 29.78"   Gusts: NA
Location:  42.57°N, 71.99°W
Report Text: KFIT 202052Z AUTO 28007KT 10SM CLR 04/M10 A2978 RMK AO2 SLP087 T00441100 53002
Loading
Personal Weather Stations






























Interactive Weather Map New forecast layout! Learn more

10-Day Weather Forecast

Advertisements
Track Severe Weather on mobile